METAR

TAF

 




Rio de Janeiro / Galeão - Antonio Carlos Jobim, RJ - SBGL


27 de Abril de 2015 às 22:00 (UTC)


Tempo:

Céu parcialmente nublado

Temperatura:

24ºC

Umidade Relativa:

74%

Localização:
Ajuste do Altímetro:

1017 hPa

Visibilidade Horizontal Predominante:

> 10 Km

Direção e Velocidade do Vento:

130° 12,96 Km/h


Observação Meteorológica:

METAR SBGL 272200Z 13007KT 9999 FEW030 BKN050 24/19 Q1017=